Time;durP1;ratioP1;P1;durP2;ratioP2;P2;SDS_P1;SDS_P2;PMS_P1;PMS_P2;Temp;Humidity;BMP_temperature;BMP_pressure;BME280_temperature;BME280_humidity;BME280_pressure;Samples;Min_cycle;Max_cycle;Signal;HPM_P1;HPM_P2
2023/07/25 00:02:10;;;;;;;6.47;3.20;;;;;;;13.53;100.00;97930.53;5022442;28;20116;-74
2023/07/25 00:04:36;;;;;;;5.10;2.95;;;;;;;13.65;100.00;97950.34;5022498;28;20116;-74
2023/07/25 00:07:01;;;;;;;5.43;3.13;;;;;;;13.55;100.00;97939.28;5025585;28;20052;-74
2023/07/25 00:09:26;;;;;;;6.80;3.40;;;;;;;13.71;100.00;97960.22;5024310;28;20519;-74
2023/07/25 00:11:52;;;;;;;6.70;2.80;;;;;;;13.49;100.00;97949.25;5024256;28;20029;-74
2023/07/25 00:14:17;;;;;;;7.25;2.70;;;;;;;13.46;100.00;97948.88;5013279;28;20087;-74
2023/07/25 00:16:42;;;;;;;4.75;2.83;;;;;;;13.45;100.00;97950.78;5029710;28;20064;-74
2023/07/25 00:19:07;;;;;;;5.25;3.17;;;;;;;13.38;100.00;97947.38;5034152;28;20101;-74
2023/07/25 00:21:33;;;;;;;5.40;2.80;;;;;;;13.38;100.00;97950.09;5039112;28;20016;-75
2023/07/25 00:23:58;;;;;;;7.60;3.30;;;;;;;13.52;100.00;97943.31;5027031;28;20036;-74
2023/07/25 00:26:23;;;;;;;6.82;3.40;;;;;;;13.54;100.00;97948.50;5025716;28;20029;-74
2023/07/25 00:28:49;;;;;;;9.63;3.50;;;;;;;13.60;100.00;97944.81;5023352;28;20036;-74
2023/07/25 00:31:14;;;;;;;6.20;3.72;;;;;;;13.73;100.00;97951.84;5036497;28;20128;-74
2023/07/25 00:33:39;;;;;;;6.38;3.47;;;;;;;13.73;100.00;97940.97;5030886;28;20497;-74
2023/07/25 00:36:05;;;;;;;6.25;3.40;;;;;;;13.86;100.00;97947.97;5037117;28;20044;-75
2023/07/25 00:38:30;;;;;;;8.25;3.90;;;;;;;13.85;100.00;97932.72;5031905;28;20029;-75
2023/07/25 00:40:55;;;;;;;5.60;3.50;;;;;;;13.82;100.00;97924.00;5023224;28;20026;-74
2023/07/25 00:43:20;;;;;;;4.00;2.55;;;;;;;13.81;100.00;97919.63;5028538;28;20029;-75
2023/07/25 00:45:46;;;;;;;6.70;3.25;;;;;;;13.65;100.00;97900.56;5045191;28;20598;-74
2023/07/25 00:48:12;;;;;;;5.72;2.72;;;;;;;13.73;100.00;97919.22;5035915;28;20123;-75
2023/07/25 00:50:37;;;;;;;4.88;2.97;;;;;;;13.65;100.00;97912.28;5021134;28;20048;-74
2023/07/25 00:53:05;;;;;;;7.90;2.92;;;;;;;13.68;100.00;97911.81;5030969;28;20489;-74
2023/07/25 00:55:31;;;;;;;6.30;2.88;;;;;;;13.65;100.00;97906.00;5043931;28;20025;-74
2023/07/25 00:57:56;;;;;;;8.15;3.10;;;;;;;13.57;100.00;97904.50;5027971;28;20088;-76
2023/07/25 01:00:22;;;;;;;8.80;2.70;;;;;;;13.45;100.00;97895.63;5022479;28;21080;-75
2023/07/25 01:02:47;;;;;;;4.43;2.85;;;;;;;13.37;100.00;97900.38;5040927;28;20021;-75
2023/07/25 01:05:12;;;;;;;5.30;2.70;;;;;;;13.27;100.00;97897.47;5033553;28;20680;-75
2023/07/25 01:07:40;;;;;;;4.15;2.80;;;;;;;13.35;100.00;97907.94;5034978;28;20113;-75
2023/07/25 01:10:06;;;;;;;6.35;2.90;;;;;;;13.31;100.00;97901.34;5031500;28;20029;-76
2023/07/25 01:12:31;;;;;;;6.20;2.80;;;;;;;13.31;100.00;97897.81;5026491;28;20399;-75
2023/07/25 01:14:57;;;;;;;5.88;2.80;;;;;;;13.28;100.00;97904.56;5028910;28;20018;-75
2023/07/25 01:17:24;;;;;;;6.63;2.60;;;;;;;13.28;100.00;97903.72;5017715;28;20041;-76
2023/07/25 01:19:51;;;;;;;4.88;2.60;;;;;;;13.19;100.00;97895.09;5017363;28;20034;-75
2023/07/25 01:22:17;;;;;;;5.35;3.25;;;;;;;13.10;100.00;97877.56;5024638;28;20037;-75
2023/07/25 01:24:44;;;;;;;7.90;2.90;;;;;;;13.25;100.00;97890.59;5024095;28;20048;-75
2023/07/25 01:27:10;;;;;;;7.47;3.10;;;;;;;13.25;100.00;97899.56;5029200;28;20392;-75
2023/07/25 01:29:36;;;;;;;4.70;2.90;;;;;;;13.29;100.00;97903.47;5029309;28;20028;-75
2023/07/25 01:32:01;;;;;;;5.45;2.83;;;;;;;13.33;100.00;97904.63;5036803;28;20025;-75
2023/07/25 01:34:26;;;;;;;7.38;3.20;;;;;;;13.34;100.00;97906.28;5039562;28;20034;-75
2023/07/25 01:36:52;;;;;;;5.93;3.03;;;;;;;13.35;100.00;97896.25;5030302;28;20049;-75
2023/07/25 01:39:17;;;;;;;7.63;3.10;;;;;;;13.40;100.00;97887.38;5044841;28;20033;-74
2023/07/25 01:41:43;;;;;;;4.15;2.85;;;;;;;13.38;100.00;97883.00;5027648;28;20024;-75
2023/07/25 01:44:08;;;;;;;7.05;2.90;;;;;;;13.37;100.00;97886.78;5030133;28;20022;-75
2023/07/25 01:46:34;;;;;;;6.07;3.60;;;;;;;13.37;100.00;97872.38;5023397;28;20048;-75
2023/07/25 01:48:59;;;;;;;7.55;3.20;;;;;;;13.43;100.00;97865.16;5047858;28;20017;-74
2023/07/25 01:51:26;;;;;;;5.85;3.53;;;;;;;13.45;100.00;97863.00;5038364;28;20035;-75
2023/07/25 01:53:53;;;;;;;6.55;3.22;;;;;;;13.43;100.00;97851.56;5027306;28;20037;-74
2023/07/25 01:56:19;;;;;;;7.65;3.35;;;;;;;13.36;100.00;97855.25;5018048;28;20095;-75
2023/07/25 01:58:44;;;;;;;5.38;3.13;;;;;;;13.27;100.00;97851.28;5021292;28;20029;-74
2023/07/25 02:01:09;;;;;;;7.78;3.50;;;;;;;13.32;100.00;97856.00;5034825;28;20060;-75
2023/07/25 02:03:35;;;;;;;6.18;3.05;;;;;;;13.18;100.00;97841.88;5027506;28;20430;-75
2023/07/25 02:06:00;;;;;;;6.15;3.50;;;;;;;13.19;100.00;97837.25;5027654;28;20029;-74
2023/07/25 02:08:25;;;;;;;5.53;3.20;;;;;;;13.08;100.00;97817.22;5035190;28;20045;-74
2023/07/25 02:10:51;;;;;;;7.03;3.45;;;;;;;13.16;100.00;97812.22;5035696;28;20104;-74
2023/07/25 02:13:16;;;;;;;8.07;3.33;;;;;;;13.22;100.00;97818.56;5031286;28;20025;-74
2023/07/25 02:15:41;;;;;;;5.25;3.28;;;;;;;13.10;100.00;97820.53;5034785;28;20032;-74
2023/07/25 02:18:06;;;;;;;5.30;3.15;;;;;;;13.32;100.00;97834.25;5034857;28;20441;-74
2023/07/25 02:20:32;;;;;;;6.78;3.30;;;;;;;13.30;100.00;97834.50;5034184;28;20029;-74
2023/07/25 02:22:59;;;;;;;6.63;3.58;;;;;;;13.22;100.00;97831.31;5033352;28;20048;-74
2023/07/25 02:25:28;;;;;;;6.45;3.22;;;;;;;13.19;100.00;97831.81;5026308;28;20483;-74
2023/07/25 02:27:54;;;;;;;6.35;3.95;;;;;;;13.21;100.00;97825.06;5033060;28;20080;-74
2023/07/25 02:30:20;;;;;;;6.72;3.60;;;;;;;13.21;100.00;97827.78;5018627;28;20383;-74
2023/07/25 02:32:46;;;;;;;7.13;3.25;;;;;;;13.17;100.00;97826.63;5022129;28;20040;-75
2023/07/25 02:35:11;;;;;;;7.97;3.80;;;;;;;13.14;100.00;97825.22;5026688;28;20425;-74
2023/07/25 02:37:37;;;;;;;9.43;4.05;;;;;;;13.30;100.00;97842.63;5048267;22;20054;-64
2023/07/25 02:40:02;;;;;;;6.68;3.97;;;;;;;13.31;100.00;97830.72;5017276;28;20053;-62
2023/07/25 02:42:28;;;;;;;5.45;3.55;;;;;;;13.31;100.00;97819.84;5026084;28;20060;-62
2023/07/25 02:44:53;;;;;;;5.75;3.47;;;;;;;13.34;100.00;97807.69;5021976;28;20472;-62
2023/07/25 02:47:18;;;;;;;7.03;4.00;;;;;;;13.42;100.00;97809.16;5034434;28;20025;-62
2023/07/25 02:49:44;;;;;;;6.60;3.72;;;;;;;13.47;100.00;97801.09;5022248;28;20026;-62
2023/07/25 02:52:09;;;;;;;5.88;3.28;;;;;;;13.58;100.00;97802.91;5011675;28;20041;-62
2023/07/25 02:54:34;;;;;;;6.78;3.53;;;;;;;13.65;100.00;97803.56;5007278;28;20026;-62
2023/07/25 02:57:00;;;;;;;6.40;3.60;;;;;;;13.68;100.00;97803.06;5007793;28;20029;-62
2023/07/25 02:59:25;;;;;;;4.93;3.28;;;;;;;13.73;100.00;97800.44;4997437;28;20112;-62
2023/07/25 03:01:50;;;;;;;6.70;3.67;;;;;;;13.76;100.00;97816.25;4999401;28;20030;-62
2023/07/25 03:04:16;;;;;;;7.30;3.20;;;;;;;13.81;100.00;97824.47;5007869;28;20030;-61
2023/07/25 03:06:41;;;;;;;6.32;3.63;;;;;;;13.98;100.00;97829.06;5007159;28;20477;-61
2023/07/25 03:09:07;;;;;;;4.70;2.70;;;;;;;13.74;100.00;97823.81;5013328;28;20032;-62
2023/07/25 03:11:32;;;;;;;3.78;2.45;;;;;;;13.82;100.00;97831.56;5017881;28;20045;-62
2023/07/25 03:13:58;;;;;;;5.72;2.65;;;;;;;13.80;100.00;97835.59;5005608;28;20030;-61
2023/07/25 03:16:23;;;;;;;3.70;2.47;;;;;;;13.80;100.00;97814.66;5004496;28;20088;-62
2023/07/25 03:18:48;;;;;;;4.60;2.63;;;;;;;13.87;100.00;97795.47;5024995;28;20036;-62
2023/07/25 03:21:14;;;;;;;4.45;2.85;;;;;;;13.98;100.00;97791.00;5009264;28;20044;-62
2023/07/25 03:23:39;;;;;;;8.35;3.08;;;;;;;14.03;100.00;97788.34;5004389;28;20026;-63
2023/07/25 03:26:04;;;;;;;4.22;2.63;;;;;;;13.94;100.00;97789.88;4998244;28;20069;-62
2023/07/25 03:28:30;;;;;;;5.72;2.92;;;;;;;13.87;100.00;97791.94;5000163;28;20116;-62
2023/07/25 03:30:55;;;;;;;5.60;2.95;;;;;;;13.84;100.00;97795.16;5009451;28;20101;-62
2023/07/25 03:33:20;;;;;;;4.65;2.80;;;;;;;13.79;100.00;97791.28;5010415;28;20161;-62
2023/07/25 03:35:46;;;;;;;5.10;3.20;;;;;;;13.76;100.00;97786.34;5008720;28;20069;-62
2023/07/25 03:38:11;;;;;;;4.93;3.22;;;;;;;13.75;100.00;97792.00;4998510;28;20034;-61
2023/07/25 03:40:37;;;;;;;6.72;3.28;;;;;;;13.75;100.00;97798.28;5005662;28;20088;-62
2023/07/25 03:43:02;;;;;;;6.07;3.40;;;;;;;13.78;100.00;97802.38;5000021;28;20037;-62
2023/07/25 03:45:28;;;;;;;7.47;3.78;;;;;;;13.84;100.00;97795.16;5014379;28;20532;-61
2023/07/25 03:47:53;;;;;;;7.53;4.28;;;;;;;13.90;100.00;97783.28;5010113;28;20551;-62
2023/07/25 03:50:18;;;;;;;5.95;3.90;;;;;;;13.97;100.00;97786.66;5004428;28;20101;-62
2023/07/25 03:52:44;;;;;;;7.72;4.00;;;;;;;13.99;100.00;97795.34;5028575;28;20171;-61
2023/07/25 03:55:09;;;;;;;7.97;4.03;;;;;;;14.09;100.00;97808.28;5017355;28;20117;-61
2023/07/25 03:57:35;;;;;;;8.60;4.32;;;;;;;14.09;100.00;97808.28;5021255;28;20397;-61
2023/07/25 04:00:00;;;;;;;7.82;4.18;;;;;;;14.08;100.00;97804.75;5007552;28;20073;-62
2023/07/25 04:02:25;;;;;;;8.93;4.97;;;;;;;14.09;100.00;97794.69;5012104;28;20390;-62
2023/07/25 04:04:51;;;;;;;10.57;4.45;;;;;;;14.13;100.00;97796.66;5017384;28;20072;-62
2023/07/25 04:07:16;;;;;;;9.07;4.45;;;;;;;14.19;100.00;97798.34;5010072;28;20485;-61
2023/07/25 04:09:42;;;;;;;8.18;3.55;;;;;;;14.28;100.00;97806.94;5010546;28;20080;-62
2023/07/25 04:12:07;;;;;;;7.70;3.83;;;;;;;14.35;100.00;97804.00;5023629;28;20026;-62
2023/07/25 04:14:32;;;;;;;6.80;3.72;;;;;;;14.36;100.00;97805.69;5009876;28;20104;-61
2023/07/25 04:16:58;;;;;;;4.50;2.80;;;;;;;14.39;100.00;97797.00;5011196;28;20041;-62
2023/07/25 04:19:23;;;;;;;5.05;3.38;;;;;;;14.40;100.00;97793.19;5011596;28;20026;-62
2023/07/25 04:21:49;;;;;;;11.63;3.25;;;;;;;14.44;100.00;97792.44;5009345;28;20453;-62
2023/07/25 04:24:14;;;;;;;7.55;3.05;;;;;;;14.51;100.00;97786.78;5006905;28;20072;-65
2023/07/25 04:26:40;;;;;;;5.70;3.10;;;;;;;14.56;100.00;97794.25;5006072;28;20049;-62
2023/07/25 04:29:05;;;;;;;4.78;2.85;;;;;;;14.59;100.00;97799.16;5014070;28;20037;-67
2023/07/25 04:31:31;;;;;;;5.00;3.20;;;;;;;14.55;100.00;97807.03;5030218;28;20388;-62
2023/07/25 04:33:56;;;;;;;6.50;2.80;;;;;;;14.58;100.00;97798.34;5022556;28;20028;-62
2023/07/25 04:36:22;;;;;;;6.57;2.97;;;;;;;14.55;100.00;97803.50;5009608;28;20396;-62
2023/07/25 04:38:47;;;;;;;11.00;2.95;;;;;;;14.59;100.00;97810.06;5012777;28;20029;-61
2023/07/25 04:41:12;;;;;;;4.82;2.70;;;;;;;14.63;100.00;97803.84;5030343;28;20149;-62
2023/07/25 04:43:38;;;;;;;6.78;2.53;;;;;;;14.67;100.00;97806.88;5003678;28;20393;-62
2023/07/25 04:46:03;;;;;;;5.03;2.65;;;;;;;14.67;100.00;97807.72;5008215;28;20029;-62
2023/07/25 04:48:29;;;;;;;7.47;2.58;;;;;;;14.66;100.00;97799.81;5026021;28;20021;-62
2023/07/25 04:50:54;;;;;;;7.88;2.78;;;;;;;14.64;100.00;97821.81;5014703;28;20049;-61
2023/07/25 04:53:20;;;;;;;4.85;3.20;;;;;;;14.60;100.00;97820.69;5011472;28;20152;-61
2023/07/25 04:55:45;;;;;;;8.20;3.15;;;;;;;14.64;100.00;97818.28;5015189;28;20114;-61
2023/07/25 04:58:10;;;;;;;5.93;3.40;;;;;;;14.67;100.00;97812.31;5012934;28;20030;-61
2023/07/25 05:00:36;;;;;;;9.05;3.30;;;;;;;14.63;100.00;97803.84;5007897;28;20120;-61
2023/07/25 05:03:01;;;;;;;4.63;2.78;;;;;;;14.67;100.00;97809.59;5022334;28;20029;-61
2023/07/25 05:05:28;;;;;;;5.47;3.20;;;;;;;14.73;100.00;97807.78;5014679;28;20087;-61
2023/07/25 05:07:53;;;;;;;5.70;3.00;;;;;;;14.80;100.00;97811.97;5008305;28;20472;-62
2023/07/25 05:10:19;;;;;;;6.88;4.57;;;;;;;14.90;100.00;97809.31;5022623;28;20038;-61
2023/07/25 05:12:44;;;;;;;7.30;3.35;;;;;;;14.99;100.00;97804.28;5011962;28;20032;-62
2023/07/25 05:15:10;;;;;;;5.97;4.13;;;;;;;15.09;100.00;97815.28;5007430;28;20465;-62
2023/07/25 05:17:35;;;;;;;5.80;3.90;;;;;;;15.19;100.00;97811.81;5008860;28;20034;-62
2023/07/25 05:20:00;;;;;;;5.65;2.70;;;;;;;15.28;100.00;97807.56;5011647;28;20030;-63
2023/07/25 05:22:26;;;;;;;4.60;2.97;;;;;;;15.27;100.00;97807.78;5013259;28;20133;-62
2023/07/25 05:24:51;;;;;;;6.15;3.38;;;;;;;15.23;100.00;97798.50;5010746;28;20069;-63
2023/07/25 05:27:16;;;;;;;8.45;2.90;;;;;;;15.27;100.00;97813.25;5003577;28;20057;-62
2023/07/25 05:29:42;;;;;;;5.70;2.85;;;;;;;15.25;100.00;97818.16;5016604;28;20049;-62
2023/07/25 05:32:08;;;;;;;6.70;2.97;;;;;;;15.24;100.00;97830.13;5013023;28;20513;-63
2023/07/25 05:34:33;;;;;;;4.78;3.03;;;;;;;15.18;100.00;97847.50;5010928;28;20045;-62
2023/07/25 05:36:58;;;;;;;8.85;3.00;;;;;;;15.12;100.00;97841.19;5011001;28;20026;-61
2023/07/25 05:39:24;;;;;;;7.13;3.13;;;;;;;15.08;100.00;97843.56;5017737;28;20088;-61
2023/07/25 05:41:49;;;;;;;8.02;3.55;;;;;;;14.95;100.00;97830.34;5014905;28;20040;-62
2023/07/25 05:44:14;;;;;;;9.50;3.55;;;;;;;14.83;100.00;97829.69;5024991;28;20112;-61
2023/07/25 05:46:41;;;;;;;5.40;3.47;;;;;;;14.78;100.00;97830.44;5024481;28;20060;-61
2023/07/25 05:49:06;;;;;;;9.27;3.33;;;;;;;14.81;100.00;97838.09;5019866;28;20114;-62
2023/07/25 05:51:32;;;;;;;7.30;4.38;;;;;;;14.82;100.00;97831.56;5005977;28;20029;-62
2023/07/25 05:53:57;;;;;;;6.32;3.80;;;;;;;14.89;100.00;97828.66;4999321;28;20030;-64
2023/07/25 05:56:23;;;;;;;6.65;4.18;;;;;;;15.00;100.00;97848.66;5013950;28;20066;-64
2023/07/25 05:58:48;;;;;;;7.15;4.15;;;;;;;15.07;100.00;97841.94;5009802;28;20038;-64
2023/07/25 06:01:14;;;;;;;10.57;4.50;;;;;;;15.12;100.00;97847.44;5009158;28;20026;-64
2023/07/25 06:03:39;;;;;;;6.40;4.20;;;;;;;15.15;100.00;97848.03;5019601;28;20026;-63
2023/07/25 06:06:05;;;;;;;13.63;4.30;;;;;;;15.17;100.00;97824.88;5011079;28;20046;-63
2023/07/25 06:08:30;;;;;;;10.70;4.57;;;;;;;15.22;100.00;97813.19;4995145;28;20026;-64
2023/07/25 06:10:55;;;;;;;7.88;4.28;;;;;;;15.25;100.00;97827.16;5010129;28;20026;-64
2023/07/25 06:13:21;;;;;;;12.65;4.60;;;;;;;15.21;100.00;97836.09;5001733;28;20034;-64
2023/07/25 06:15:47;;;;;;;9.07;4.65;;;;;;;15.17;100.00;97857.59;5009741;28;20037;-63
2023/07/25 06:18:12;;;;;;;10.93;5.03;;;;;;;15.19;100.00;97843.69;5017198;28;20059;-62
2023/07/25 06:20:38;;;;;;;11.52;4.65;;;;;;;15.23;100.00;97834.75;5031874;28;20026;-62
2023/07/25 06:23:04;;;;;;;11.93;4.97;;;;;;;15.25;100.00;97838.03;5007110;28;20025;-63
2023/07/25 06:25:29;;;;;;;10.05;5.18;;;;;;;15.16;100.00;97833.31;5007728;28;20025;-64
2023/07/25 06:27:55;;;;;;;8.27;4.80;;;;;;;15.29;100.00;97832.88;5010687;28;20053;-64
2023/07/25 06:30:20;;;;;;;10.80;5.05;;;;;;;15.42;100.00;97843.38;5018692;28;20116;-63
2023/07/25 06:32:46;;;;;;;11.18;5.00;;;;;;;15.53;100.00;97847.81;5004561;28;20029;-67
2023/07/25 06:35:12;;;;;;;12.05;5.00;;;;;;;15.68;100.00;97849.06;5006020;28;20121;-68
2023/07/25 06:37:39;;;;;;;10.40;4.32;;;;;;;15.74;100.00;97845.31;5005206;28;20120;-68
2023/07/25 06:40:05;;;;;;;6.78;3.58;;;;;;;15.71;100.00;97838.47;5011113;28;20079;-68
2023/07/25 06:42:30;;;;;;;7.65;4.07;;;;;;;15.88;100.00;97834.81;5011144;28;20022;-68
2023/07/25 06:44:57;;;;;;;20.17;7.63;;;;;;;15.84;100.00;97830.94;5013258;28;20028;-68
2023/07/25 06:47:23;;;;;;;8.27;4.00;;;;;;;15.75;100.00;97825.16;5012640;28;20481;-61
2023/07/25 06:49:48;;;;;;;5.13;3.00;;;;;;;15.74;100.00;97823.50;5006830;28;20026;-62
2023/07/25 06:52:13;;;;;;;8.00;3.47;;;;;;;15.79;100.00;97826.28;5000836;28;20061;-61
2023/07/25 06:54:40;;;;;;;6.57;3.42;;;;;;;15.79;100.00;97820.81;5009534;28;20037;-62
2023/07/25 06:57:06;;;;;;;6.40;3.03;;;;;;;15.91;100.00;97821.47;5001823;28;20075;-62
2023/07/25 06:59:32;;;;;;;6.35;3.42;;;;;;;16.03;100.00;97814.97;5018588;28;20038;-61
2023/07/25 07:01:58;;;;;;;5.28;2.40;;;;;;;16.11;100.00;97812.59;4998970;28;20129;-61
2023/07/25 07:04:24;;;;;;;8.07;2.85;;;;;;;16.28;100.00;97811.59;5002771;28;20120;-62
2023/07/25 07:06:49;;;;;;;4.55;2.60;;;;;;;16.38;100.00;97790.63;5018311;28;20362;-62
2023/07/25 07:09:15;;;;;;;4.57;2.78;;;;;;;16.44;100.00;97789.56;5010218;28;20026;-62
2023/07/25 07:11:40;;;;;;;4.82;2.28;;;;;;;16.47;100.00;97785.47;5019940;28;20392;-62
2023/07/25 07:14:06;;;;;;;3.92;2.33;;;;;;;16.61;100.00;97772.97;5000271;28;20030;-62
2023/07/25 07:16:32;;;;;;;5.72;2.70;;;;;;;16.94;100.00;97751.78;5006914;28;20064;-68
2023/07/25 07:18:57;;;;;;;5.25;2.40;;;;;;;17.22;100.00;97741.44;5011661;28;20062;-68
2023/07/25 07:21:23;;;;;;;8.13;2.67;;;;;;;17.35;100.00;97746.38;5008109;28;20040;-70
2023/07/25 07:23:49;;;;;;;3.75;2.30;;;;;;;17.24;100.00;97737.34;5014679;28;20026;-68
2023/07/25 07:26:14;;;;;;;4.10;2.50;;;;;;;17.46;100.00;97728.84;5016719;28;20044;-68
2023/07/25 07:28:41;;;;;;;6.78;2.63;;;;;;;17.64;100.00;97732.94;5008725;28;20034;-68
2023/07/25 07:31:09;;;;;;;4.20;2.17;;;;;;;17.83;100.00;97727.75;5019174;28;20029;-68
2023/07/25 07:33:35;;;;;;;4.13;2.42;;;;;;;17.79;100.00;97721.22;5018513;28;20025;-68
2023/07/25 07:36:01;;;;;;;3.78;2.05;;;;;;;17.87;100.00;97701.47;5020673;28;20092;-68
2023/07/25 07:38:27;;;;;;;4.63;2.30;;;;;;;18.38;100.00;97701.28;5008293;28;20254;-68
2023/07/25 07:40:52;;;;;;;5.45;2.33;;;;;;;18.48;100.00;97694.13;5009234;28;20060;-67
2023/07/25 07:43:18;;;;;;;6.03;1.90;;;;;;;18.61;100.00;97680.63;5024126;28;20025;-68
2023/07/25 07:45:44;;;;;;;3.05;2.10;;;;;;;18.87;100.00;97675.03;5020999;28;20029;-67
2023/07/25 07:48:09;;;;;;;6.45;2.08;;;;;;;18.92;100.00;97677.72;5009674;28;20032;-68
2023/07/25 07:51:16;;;;;;;9.00;2.20;;;;;;;19.03;100.00;97686.69;5008380;28;20029;-68
2023/07/25 07:53:41;;;;;;;6.43;2.30;;;;;;;19.55;100.00;97684.34;5013067;28;20029;-62
2023/07/25 07:56:12;;;;;;;6.18;1.65;;;;;;;19.11;100.00;97636.72;5046704;22;20033;-77
2023/07/25 07:58:37;;;;;;;5.22;2.50;;;;;;;18.94;100.00;97674.69;5050786;28;20042;-74
2023/07/25 08:01:03;;;;;;;4.28;1.90;;;;;;;18.67;100.00;97664.16;5047663;28;20093;-75
2023/07/25 08:03:28;;;;;;;3.80;2.00;;;;;;;19.05;100.00;97674.34;5015471;28;20448;-71
2023/07/25 08:05:57;;;;;;;2.97;2.17;;;;;;;20.92;100.00;97650.81;5037507;28;20076;-75
2023/07/25 08:08:22;;;;;;;5.32;2.28;;;;;;;24.98;100.00;97625.19;5028451;28;20034;-76
2023/07/25 08:10:48;;;;;;;6.13;1.50;;;;;;;27.68;100.00;97630.03;5026270;28;20033;-74
2023/07/25 08:13:13;;;;;;;3.90;1.92;;;;;;;30.11;100.00;97632.91;5030291;28;20022;-77
2023/07/25 08:15:38;;;;;;;3.72;1.70;;;;;;;31.88;77.57;97628.69;5026355;28;20064;-78
2023/07/25 08:18:04;;;;;;;3.40;1.80;;;;;;;30.83;75.13;97640.19;5039371;28;20503;-81
2023/07/25 08:20:29;;;;;;;3.58;1.95;;;;;;;30.47;85.02;97628.19;5035104;28;20049;-76
2023/07/25 08:22:54;;;;;;;3.55;1.88;;;;;;;31.34;72.89;97620.50;5027451;28;20060;-76
2023/07/25 08:25:20;;;;;;;2.58;1.73;;;;;;;31.10;73.70;97614.06;5035845;28;20117;-76
2023/07/25 08:27:45;;;;;;;5.15;1.90;;;;;;;29.31;82.19;97622.81;5030975;28;20112;-79
2023/07/25 08:30:10;;;;;;;5.00;2.65;;;;;;;27.31;100.00;97629.94;5018986;28;20021;-77
2023/07/25 08:32:36;;;;;;;6.57;2.40;;;;;;;25.82;100.00;97634.00;5024135;28;20475;-79
2023/07/25 08:35:01;;;;;;;2.95;1.75;;;;;;;26.42;100.00;97624.59;5048227;28;20033;-79
2023/07/25 08:37:26;;;;;;;4.32;2.20;;;;;;;26.96;100.00;97625.84;5036000;28;20056;-76
2023/07/25 08:39:52;;;;;;;6.35;1.90;;;;;;;27.68;100.00;97616.16;5070933;22;20057;-53
2023/07/25 08:42:20;;;;;;;4.05;2.00;;;;;;;27.07;100.00;97613.97;5009564;28;20029;-49
2023/07/25 08:44:50;;;;;;;1.98;1.30;;;;;;;25.70;100.00;97608.94;5021607;28;20107;-49
2023/07/25 08:47:25;;;;;;;3.50;1.45;;;;;;;25.58;100.00;97623.50;5039538;28;20051;-48
2023/07/25 08:49:53;;;;;;;4.55;1.60;;;;;;;28.68;100.00;97613.03;5039195;28;20108;-48
2023/07/25 08:52:20;;;;;;;2.70;1.40;;;;;;;28.41;100.00;97614.56;5022575;28;20036;-49
2023/07/25 08:54:48;;;;;;;5.65;1.60;;;;;;;27.29;100.00;97601.69;5032093;28;20032;-49
2023/07/25 08:57:16;;;;;;;3.75;1.60;;;;;;;26.64;100.00;97606.00;5026707;28;20049;-50
2023/07/25 08:59:42;;;;;;;4.30;1.27;;;;;;;26.28;100.00;97610.16;5023083;28;20057;-49
2023/07/25 09:02:09;;;;;;;3.33;1.30;;;;;;;25.78;100.00;97602.53;5031652;28;20029;-49
2023/07/25 09:04:34;;;;;;;3.47;1.33;;;;;;;26.96;100.00;97598.06;5029765;28;20037;-49
2023/07/25 09:07:00;;;;;;;2.33;1.00;;;;;;;27.14;100.00;97595.94;5034868;28;20026;-48
2023/07/25 09:09:26;;;;;;;1.65;1.00;;;;;;;26.72;100.00;97601.56;5023640;28;20083;-48
2023/07/25 09:11:53;;;;;;;4.20;0.88;;;;;;;25.99;100.00;97597.94;5041300;28;20022;-49
2023/07/25 09:14:18;;;;;;;2.80;1.10;;;;;;;25.28;100.00;97603.19;5022808;28;20077;-49
2023/07/25 09:16:44;;;;;;;3.95;1.30;;;;;;;23.77;100.00;97598.16;5023233;28;20559;-48
2023/07/25 09:19:09;;;;;;;2.60;1.00;;;;;;;22.63;100.00;97604.03;5021000;28;20404;-48
2023/07/25 09:21:53;;;;;;;3.67;1.20;;;;;;;22.19;100.00;97594.53;5023843;28;20052;-48
2023/07/25 09:24:19;;;;;;;4.03;1.02;;;;;;;21.95;100.00;97597.50;5023234;28;20485;-48
2023/07/25 09:26:51;;;;;;;2.45;1.00;;;;;;;21.99;100.00;97596.59;5022594;28;20045;-48
2023/07/25 09:29:26;;;;;;;5.43;1.00;;;;;;;21.95;100.00;97592.00;5022171;28;20029;-48
2023/07/25 09:31:51;;;;;;;9.60;0.95;;;;;;;22.41;100.00;97585.53;5028903;28;20385;-48
2023/07/25 09:34:17;;;;;;;1.55;0.77;;;;;;;22.77;100.00;97591.03;5028059;28;20025;-48
2023/07/25 09:36:47;;;;;;;6.22;1.30;;;;;;;23.19;100.00;97573.16;5024976;28;20400;-48
2023/07/25 09:39:13;;;;;;;7.63;1.00;;;;;;;24.49;100.00;97572.78;5029787;28;20034;-49
2023/07/25 09:41:39;;;;;;;4.32;0.90;;;;;;;25.16;100.00;97558.78;5034333;28;20375;-48
2023/07/25 09:44:07;;;;;;;3.67;0.90;;;;;;;26.61;100.00;97563.13;5022761;28;20036;-48
2023/07/25 09:46:33;;;;;;;3.03;1.02;;;;;;;29.02;97.20;97567.09;5022845;28;20029;-48
2023/07/25 09:48:58;;;;;;;2.53;1.08;;;;;;;28.34;92.12;97575.38;5025729;28;20504;-48
2023/07/25 09:51:23;;;;;;;1.58;0.80;;;;;;;28.52;92.87;97560.09;5025401;28;20037;-49
2023/07/25 09:53:54;;;;;;;1.67;0.85;;;;;;;32.26;75.14;97564.59;5030631;28;20029;-49
2023/07/25 09:56:24;;;;;;;3.03;0.82;;;;;;;33.70;61.38;97568.00;5033403;28;20032;-49
2023/07/25 09:58:50;;;;;;;2.75;0.80;;;;;;;32.72;60.23;97575.66;5015958;28;20438;-49
2023/07/25 10:01:16;;;;;;;1.65;0.90;;;;;;;29.84;64.04;97570.47;5041664;28;20102;-49
2023/07/25 10:03:45;;;;;;;1.88;1.00;;;;;;;28.29;72.86;97578.41;5031601;28;20473;-49
2023/07/25 10:06:12;;;;;;;5.03;1.13;;;;;;;25.61;98.98;97570.19;5025672;28;20032;-49
2023/07/25 10:08:44;;;;;;;3.33;0.90;;;;;;;25.48;100.00;97571.22;5028819;28;20489;-49
2023/07/25 10:11:12;;;;;;;4.30;1.27;;;;;;;26.21;100.00;97559.97;5023533;28;20045;-49
2023/07/25 10:13:40;;;;;;;3.67;1.00;;;;;;;27.32;99.90;97559.34;5024596;28;20041;-49
2023/07/25 10:16:08;;;;;;;3.88;1.10;;;;;;;28.66;86.12;97567.22;5037956;28;20119;-49
2023/07/25 10:18:34;;;;;;;1.65;0.63;;;;;;;28.22;81.69;97578.19;5020454;28;20108;-49
2023/07/25 10:20:59;;;;;;;4.63;1.10;;;;;;;26.71;87.20;97564.66;5027284;28;20120;-49
2023/07/25 10:23:36;;;;;;;3.75;0.88;;;;;;;25.18;100.00;97565.63;5024601;28;20124;-49
2023/07/25 10:26:11;;;;;;;2.20;0.85;;;;;;;27.05;100.00;97565.50;5014775;28;20029;-48
2023/07/25 10:28:36;;;;;;;1.98;0.90;;;;;;;27.10;90.62;97557.78;5018149;28;20078;-49
2023/07/25 10:31:05;;;;;;;1.85;1.02;;;;;;;29.14;79.89;97563.47;5040646;28;20112;-49
2023/07/25 10:33:35;;;;;;;4.10;1.00;;;;;;;30.43;72.56;97565.91;5040327;28;20033;-49
2023/07/25 10:36:01;;;;;;;2.72;0.90;;;;;;;31.28;66.39;97566.06;5039886;28;20037;-49
2023/07/25 10:38:32;;;;;;;2.08;0.98;;;;;;;30.88;67.30;97564.50;5024583;28;20032;-49
2023/07/25 10:41:09;;;;;;;1.58;1.00;;;;;;;29.66;68.22;97556.09;5026850;28;20061;-49
2023/07/25 10:43:53;;;;;;;1.85;1.10;;;;;;;29.84;65.79;97549.00;5023414;28;20072;-49
2023/07/25 10:46:21;;;;;;;2.22;0.85;;;;;;;28.53;68.29;97539.47;5041777;28;20050;-49
2023/07/25 10:48:51;;;;;;;1.60;0.80;;;;;;;26.15;76.43;97553.00;5026079;28;20121;-49
2023/07/25 10:51:18;;;;;;;1.85;0.90;;;;;;;24.42;88.63;97560.59;5023350;28;20018;-49
2023/07/25 10:54:07;;;;;;;2.55;0.80;;;;;;;23.38;100.00;97561.09;5024789;28;20033;-49
2023/07/25 10:56:32;;;;;;;1.30;0.70;;;;;;;23.40;100.00;97556.88;5027440;28;20417;-49
2023/07/25 10:59:05;;;;;;;5.03;1.10;;;;;;;23.33;100.00;97558.47;5020632;28;20037;-49
2023/07/25 11:01:46;;;;;;;1.33;0.80;;;;;;;22.87;100.00;97554.94;5021719;28;20057;-49
2023/07/25 11:04:25;;;;;;;2.20;0.88;;;;;;;22.76;100.00;97553.53;5028901;28;20030;-48
2023/07/25 11:06:52;;;;;;;3.15;0.88;;;;;;;24.11;100.00;97544.94;5028258;28;20033;-49
2023/07/25 11:09:20;;;;;;;3.15;1.10;;;;;;;24.21;100.00;97544.63;5016393;28;20029;-49
2023/07/25 11:11:47;;;;;;;2.13;0.70;;;;;;;23.57;100.00;97550.59;5028070;28;20087;-49
2023/07/25 11:14:15;;;;;;;2.83;0.82;;;;;;;22.71;100.00;97561.94;5024850;28;20026;-49
2023/07/25 11:16:42;;;;;;;1.85;0.75;;;;;;;22.16;100.00;97562.06;5025759;28;20029;-48
2023/07/25 11:19:11;;;;;;;4.05;0.80;;;;;;;24.47;100.00;97550.22;5023536;28;20180;-48
2023/07/25 11:21:39;;;;;;;2.40;0.60;;;;;;;27.57;100.00;97550.25;5030001;28;20483;-49
2023/07/25 11:24:06;;;;;;;1.65;0.55;;;;;;;29.14;86.14;97559.88;5032096;28;20040;-49